sensor_id;sensor_type;location;lat;lon;timestamp;temperature;humidity
31527;DHT22;18136;42.236;-73.040;2023-07-29T00:01:34;23.20;99.90
31527;DHT22;18136;42.236;-73.040;2023-07-29T00:04:02;23.20;99.90
31527;DHT22;18136;42.236;-73.040;2023-07-29T00:06:29;23.10;99.90
31527;DHT22;18136;42.236;-73.040;2023-07-29T00:08:59;23.10;99.90
31527;DHT22;18136;42.236;-73.040;2023-07-29T00:11:25;23.00;99.90
31527;DHT22;18136;42.236;-73.040;2023-07-29T00:13:51;23.00;99.90
31527;DHT22;18136;42.236;-73.040;2023-07-29T00:16:19;23.00;99.90
31527;DHT22;18136;42.236;-73.040;2023-07-29T00:18:49;22.90;99.90
31527;DHT22;18136;42.236;-73.040;2023-07-29T00:21:16;22.90;99.90
31527;DHT22;18136;42.236;-73.040;2023-07-29T00:23:47;22.90;99.90
31527;DHT22;18136;42.236;-73.040;2023-07-29T00:26:13;22.80;99.90
31527;DHT22;18136;42.236;-73.040;2023-07-29T00:28:39;22.80;99.90
31527;DHT22;18136;42.236;-73.040;2023-07-29T00:31:05;22.70;99.90
31527;DHT22;18136;42.236;-73.040;2023-07-29T00:33:32;22.70;99.90
31527;DHT22;18136;42.236;-73.040;2023-07-29T00:35:58;22.70;99.90
31527;DHT22;18136;42.236;-73.040;2023-07-29T00:38:27;22.60;99.90
31527;DHT22;18136;42.236;-73.040;2023-07-29T00:40:54;22.60;99.90
31527;DHT22;18136;42.236;-73.040;2023-07-29T00:43:22;22.50;99.90
31527;DHT22;18136;42.236;-73.040;2023-07-29T00:45:48;22.50;99.90
31527;DHT22;18136;42.236;-73.040;2023-07-29T00:48:15;22.40;99.90
31527;DHT22;18136;42.236;-73.040;2023-07-29T00:50:46;22.40;99.90
31527;DHT22;18136;42.236;-73.040;2023-07-29T00:53:13;22.30;99.90
31527;DHT22;18136;42.236;-73.040;2023-07-29T00:55:39;22.30;99.90
31527;DHT22;18136;42.236;-73.040;2023-07-29T00:58:06;22.30;99.90
31527;DHT22;18136;42.236;-73.040;2023-07-29T01:00:33;22.20;99.90
31527;DHT22;18136;42.236;-73.040;2023-07-29T01:02:59;22.20;99.90
31527;DHT22;18136;42.236;-73.040;2023-07-29T01:05:30;22.10;99.90
31527;DHT22;18136;42.236;-73.040;2023-07-29T01:08:21;22.10;99.90
31527;DHT22;18136;42.236;-73.040;2023-07-29T01:14:01;22.00;99.90
31527;DHT22;18136;42.236;-73.040;2023-07-29T01:16:47;22.00;99.90
31527;DHT22;18136;42.236;-73.040;2023-07-29T01:22:13;21.90;99.90
31527;DHT22;18136;42.236;-73.040;2023-07-29T01:24:39;21.90;99.90
31527;DHT22;18136;42.236;-73.040;2023-07-29T01:27:06;21.80;99.90
31527;DHT22;18136;42.236;-73.040;2023-07-29T01:29:33;21.80;99.90
31527;DHT22;18136;42.236;-73.040;2023-07-29T01:32:06;21.80;99.90
31527;DHT22;18136;42.236;-73.040;2023-07-29T01:34:40;21.80;99.90
31527;DHT22;18136;42.236;-73.040;2023-07-29T01:37:09;21.70;99.90
31527;DHT22;18136;42.236;-73.040;2023-07-29T01:39:39;21.70;99.90
31527;DHT22;18136;42.236;-73.040;2023-07-29T01:42:05;21.70;99.90
31527;DHT22;18136;42.236;-73.040;2023-07-29T01:44:32;21.70;99.90
31527;DHT22;18136;42.236;-73.040;2023-07-29T01:46:59;21.70;99.90
31527;DHT22;18136;42.236;-73.040;2023-07-29T01:49:27;21.60;99.90
31527;DHT22;18136;42.236;-73.040;2023-07-29T01:51:53;21.70;99.90
31527;DHT22;18136;42.236;-73.040;2023-07-29T01:54:19;21.70;99.90
31527;DHT22;18136;42.236;-73.040;2023-07-29T01:56:47;21.70;99.90
31527;DHT22;18136;42.236;-73.040;2023-07-29T01:59:13;21.60;99.90
31527;DHT22;18136;42.236;-73.040;2023-07-29T02:01:41;21.60;99.90
31527;DHT22;18136;42.236;-73.040;2023-07-29T02:04:08;21.60;99.90
31527;DHT22;18136;42.236;-73.040;2023-07-29T02:06:34;21.60;99.90
31527;DHT22;18136;42.236;-73.040;2023-07-29T02:09:02;21.70;99.90
31527;DHT22;18136;42.236;-73.040;2023-07-29T02:11:30;21.60;99.90
31527;DHT22;18136;42.236;-73.040;2023-07-29T02:13:56;21.60;99.90
31527;DHT22;18136;42.236;-73.040;2023-07-29T02:16:23;21.60;99.90
31527;DHT22;18136;42.236;-73.040;2023-07-29T02:18:50;21.60;99.90
31527;DHT22;18136;42.236;-73.040;2023-07-29T02:21:16;21.60;99.90
31527;DHT22;18136;42.236;-73.040;2023-07-29T02:23:42;21.60;99.90
31527;DHT22;18136;42.236;-73.040;2023-07-29T02:26:10;21.60;99.90
31527;DHT22;18136;42.236;-73.040;2023-07-29T02:28:36;21.60;99.90
31527;DHT22;18136;42.236;-73.040;2023-07-29T02:31:23;21.60;99.90
31527;DHT22;18136;42.236;-73.040;2023-07-29T02:33:50;21.60;99.90
31527;DHT22;18136;42.236;-73.040;2023-07-29T02:36:17;21.60;99.90
31527;DHT22;18136;42.236;-73.040;2023-07-29T02:38:43;21.60;99.90
31527;DHT22;18136;42.236;-73.040;2023-07-29T02:41:10;21.60;99.90
31527;DHT22;18136;42.236;-73.040;2023-07-29T02:43:38;21.60;99.90
31527;DHT22;18136;42.236;-73.040;2023-07-29T02:46:04;21.60;99.90
31527;DHT22;18136;42.236;-73.040;2023-07-29T02:48:30;21.50;99.90
31527;DHT22;18136;42.236;-73.040;2023-07-29T02:50:57;21.50;99.90
31527;DHT22;18136;42.236;-73.040;2023-07-29T02:53:23;21.50;99.90
31527;DHT22;18136;42.236;-73.040;2023-07-29T02:55:49;21.50;99.90
31527;DHT22;18136;42.236;-73.040;2023-07-29T02:58:15;21.50;99.90
31527;DHT22;18136;42.236;-73.040;2023-07-29T03:00:41;21.50;99.90
31527;DHT22;18136;42.236;-73.040;2023-07-29T03:03:10;21.50;99.90
31527;DHT22;18136;42.236;-73.040;2023-07-29T03:05:36;21.40;99.90
31527;DHT22;18136;42.236;-73.040;2023-07-29T03:08:03;21.40;99.90
31527;DHT22;18136;42.236;-73.040;2023-07-29T03:10:29;21.40;99.90
31527;DHT22;18136;42.236;-73.040;2023-07-29T03:12:56;21.40;99.90
31527;DHT22;18136;42.236;-73.040;2023-07-29T03:15:25;21.40;99.90
31527;DHT22;18136;42.236;-73.040;2023-07-29T03:17:52;21.40;99.90
31527;DHT22;18136;42.236;-73.040;2023-07-29T03:20:19;21.40;99.90
31527;DHT22;18136;42.236;-73.040;2023-07-29T03:22:46;21.40;99.90
31527;DHT22;18136;42.236;-73.040;2023-07-29T03:25:13;21.40;99.90
31527;DHT22;18136;42.236;-73.040;2023-07-29T03:27:39;21.40;99.90
31527;DHT22;18136;42.236;-73.040;2023-07-29T03:30:06;21.40;99.90
31527;DHT22;18136;42.236;-73.040;2023-07-29T03:32:33;21.40;99.90
31527;DHT22;18136;42.236;-73.040;2023-07-29T03:34:59;21.40;99.90
31527;DHT22;18136;42.236;-73.040;2023-07-29T03:37:26;21.40;99.90
31527;DHT22;18136;42.236;-73.040;2023-07-29T03:39:53;21.40;99.90
31527;DHT22;18136;42.236;-73.040;2023-07-29T03:42:19;21.40;99.90
31527;DHT22;18136;42.236;-73.040;2023-07-29T03:44:45;21.40;99.90
31527;DHT22;18136;42.236;-73.040;2023-07-29T03:47:11;21.40;99.90
31527;DHT22;18136;42.236;-73.040;2023-07-29T03:49:37;21.30;99.90
31527;DHT22;18136;42.236;-73.040;2023-07-29T03:52:04;21.30;99.90
31527;DHT22;18136;42.236;-73.040;2023-07-29T03:54:30;21.30;99.90
31527;DHT22;18136;42.236;-73.040;2023-07-29T03:56:56;21.30;99.90
31527;DHT22;18136;42.236;-73.040;2023-07-29T03:59:22;21.30;99.90
31527;DHT22;18136;42.236;-73.040;2023-07-29T04:01:49;21.30;99.90
31527;DHT22;18136;42.236;-73.040;2023-07-29T04:04:15;21.30;99.90
31527;DHT22;18136;42.236;-73.040;2023-07-29T04:06:41;21.30;99.90
31527;DHT22;18136;42.236;-73.040;2023-07-29T04:09:07;21.30;99.90
31527;DHT22;18136;42.236;-73.040;2023-07-29T04:11:33;21.30;99.90
31527;DHT22;18136;42.236;-73.040;2023-07-29T04:13:59;21.20;99.90
31527;DHT22;18136;42.236;-73.040;2023-07-29T04:16:26;21.20;99.90
31527;DHT22;18136;42.236;-73.040;2023-07-29T04:18:52;21.20;99.90
31527;DHT22;18136;42.236;-73.040;2023-07-29T04:21:18;21.10;99.90
31527;DHT22;18136;42.236;-73.040;2023-07-29T04:23:44;21.10;99.90
31527;DHT22;18136;42.236;-73.040;2023-07-29T04:26:10;21.10;99.90
31527;DHT22;18136;42.236;-73.040;2023-07-29T04:28:36;21.00;99.90
31527;DHT22;18136;42.236;-73.040;2023-07-29T04:31:02;21.00;99.90
31527;DHT22;18136;42.236;-73.040;2023-07-29T04:33:29;21.00;99.90
31527;DHT22;18136;42.236;-73.040;2023-07-29T04:35:56;21.00;99.90
31527;DHT22;18136;42.236;-73.040;2023-07-29T04:38:29;20.90;99.90
31527;DHT22;18136;42.236;-73.040;2023-07-29T04:40:56;21.00;99.90
31527;DHT22;18136;42.236;-73.040;2023-07-29T04:43:22;20.90;99.90
31527;DHT22;18136;42.236;-73.040;2023-07-29T04:45:48;20.90;99.90
31527;DHT22;18136;42.236;-73.040;2023-07-29T04:48:14;20.80;99.90
31527;DHT22;18136;42.236;-73.040;2023-07-29T04:50:40;20.80;99.90
31527;DHT22;18136;42.236;-73.040;2023-07-29T04:53:07;20.80;99.90
31527;DHT22;18136;42.236;-73.040;2023-07-29T04:55:33;20.80;99.90
31527;DHT22;18136;42.236;-73.040;2023-07-29T04:57:59;20.80;99.90
31527;DHT22;18136;42.236;-73.040;2023-07-29T05:00:25;20.70;99.90
31527;DHT22;18136;42.236;-73.040;2023-07-29T05:02:51;20.70;99.90
31527;DHT22;18136;42.236;-73.040;2023-07-29T05:05:17;20.70;99.90
31527;DHT22;18136;42.236;-73.040;2023-07-29T05:07:44;20.70;99.90
31527;DHT22;18136;42.236;-73.040;2023-07-29T05:10:10;20.70;99.90
31527;DHT22;18136;42.236;-73.040;2023-07-29T05:12:37;20.60;99.90
31527;DHT22;18136;42.236;-73.040;2023-07-29T05:15:04;20.60;99.90
31527;DHT22;18136;42.236;-73.040;2023-07-29T05:17:30;20.60;99.90
31527;DHT22;18136;42.236;-73.040;2023-07-29T05:19:56;20.60;99.90
31527;DHT22;18136;42.236;-73.040;2023-07-29T05:22:22;20.70;99.90
31527;DHT22;18136;42.236;-73.040;2023-07-29T05:24:48;20.60;99.90
31527;DHT22;18136;42.236;-73.040;2023-07-29T05:27:15;20.60;99.90
31527;DHT22;18136;42.236;-73.040;2023-07-29T05:29:41;20.60;99.90
31527;DHT22;18136;42.236;-73.040;2023-07-29T05:32:08;20.60;99.90
31527;DHT22;18136;42.236;-73.040;2023-07-29T05:34:34;20.60;99.90
31527;DHT22;18136;42.236;-73.040;2023-07-29T05:37:00;20.60;99.90
31527;DHT22;18136;42.236;-73.040;2023-07-29T05:39:26;20.60;99.90
31527;DHT22;18136;42.236;-73.040;2023-07-29T05:41:52;20.50;99.90
31527;DHT22;18136;42.236;-73.040;2023-07-29T05:44:18;20.50;99.90
31527;DHT22;18136;42.236;-73.040;2023-07-29T05:46:45;20.50;99.90
31527;DHT22;18136;42.236;-73.040;2023-07-29T05:49:13;20.50;99.90
31527;DHT22;18136;42.236;-73.040;2023-07-29T05:51:39;20.50;99.90
31527;DHT22;18136;42.236;-73.040;2023-07-29T05:54:05;20.40;99.90
31527;DHT22;18136;42.236;-73.040;2023-07-29T05:56:31;20.50;99.90
31527;DHT22;18136;42.236;-73.040;2023-07-29T05:58:57;20.40;99.90
31527;DHT22;18136;42.236;-73.040;2023-07-29T06:01:23;20.50;99.90
31527;DHT22;18136;42.236;-73.040;2023-07-29T06:03:49;20.40;99.90
31527;DHT22;18136;42.236;-73.040;2023-07-29T06:06:16;20.40;99.90
31527;DHT22;18136;42.236;-73.040;2023-07-29T06:08:42;20.40;99.90
31527;DHT22;18136;42.236;-73.040;2023-07-29T06:11:08;20.40;99.90
31527;DHT22;18136;42.236;-73.040;2023-07-29T06:13:34;20.40;99.90
31527;DHT22;18136;42.236;-73.040;2023-07-29T06:16:00;20.40;99.90
31527;DHT22;18136;42.236;-73.040;2023-07-29T06:18:26;20.30;99.90
31527;DHT22;18136;42.236;-73.040;2023-07-29T06:20:52;20.30;99.90
31527;DHT22;18136;42.236;-73.040;2023-07-29T06:23:18;20.30;99.90
31527;DHT22;18136;42.236;-73.040;2023-07-29T06:25:44;20.30;99.90
31527;DHT22;18136;42.236;-73.040;2023-07-29T06:28:10;20.30;99.90
31527;DHT22;18136;42.236;-73.040;2023-07-29T06:30:36;20.30;99.90
31527;DHT22;18136;42.236;-73.040;2023-07-29T06:33:03;20.30;99.90
31527;DHT22;18136;42.236;-73.040;2023-07-29T06:35:29;20.30;99.90
31527;DHT22;18136;42.236;-73.040;2023-07-29T06:37:55;20.30;99.90
31527;DHT22;18136;42.236;-73.040;2023-07-29T06:40:21;20.30;99.90
31527;DHT22;18136;42.236;-73.040;2023-07-29T06:42:47;20.30;99.90
31527;DHT22;18136;42.236;-73.040;2023-07-29T06:45:13;20.30;99.90
31527;DHT22;18136;42.236;-73.040;2023-07-29T06:47:44;20.30;99.90
31527;DHT22;18136;42.236;-73.040;2023-07-29T06:50:10;20.20;99.90
31527;DHT22;18136;42.236;-73.040;2023-07-29T06:52:36;20.30;99.90
31527;DHT22;18136;42.236;-73.040;2023-07-29T06:55:05;20.20;99.90
31527;DHT22;18136;42.236;-73.040;2023-07-29T06:57:32;20.20;99.90
31527;DHT22;18136;42.236;-73.040;2023-07-29T06:59:58;20.20;99.90
31527;DHT22;18136;42.236;-73.040;2023-07-29T07:02:24;20.20;99.90
31527;DHT22;18136;42.236;-73.040;2023-07-29T07:04:50;20.20;99.90
31527;DHT22;18136;42.236;-73.040;2023-07-29T07:07:16;20.20;99.90
31527;DHT22;18136;42.236;-73.040;2023-07-29T07:09:42;20.20;99.90
31527;DHT22;18136;42.236;-73.040;2023-07-29T07:12:08;20.20;99.90
31527;DHT22;18136;42.236;-73.040;2023-07-29T07:14:34;20.20;99.90
31527;DHT22;18136;42.236;-73.040;2023-07-29T07:17:00;20.20;99.90
31527;DHT22;18136;42.236;-73.040;2023-07-29T07:19:27;20.20;99.90
31527;DHT22;18136;42.236;-73.040;2023-07-29T07:21:53;20.10;99.90
31527;DHT22;18136;42.236;-73.040;2023-07-29T07:24:19;20.20;99.90
31527;DHT22;18136;42.236;-73.040;2023-07-29T07:26:45;20.10;99.90
31527;DHT22;18136;42.236;-73.040;2023-07-29T07:29:11;20.20;99.90
31527;DHT22;18136;42.236;-73.040;2023-07-29T07:31:37;20.20;99.90
31527;DHT22;18136;42.236;-73.040;2023-07-29T07:34:03;20.20;99.90
31527;DHT22;18136;42.236;-73.040;2023-07-29T07:36:29;20.20;99.90
31527;DHT22;18136;42.236;-73.040;2023-07-29T07:38:56;20.10;99.90
31527;DHT22;18136;42.236;-73.040;2023-07-29T07:41:22;20.10;99.90
31527;DHT22;18136;42.236;-73.040;2023-07-29T07:43:50;20.10;99.90
31527;DHT22;18136;42.236;-73.040;2023-07-29T07:46:16;20.10;99.90
31527;DHT22;18136;42.236;-73.040;2023-07-29T07:48:42;20.10;99.90
31527;DHT22;18136;42.236;-73.040;2023-07-29T07:51:12;20.10;99.90
31527;DHT22;18136;42.236;-73.040;2023-07-29T07:53:38;20.10;99.90
31527;DHT22;18136;42.236;-73.040;2023-07-29T07:56:04;20.10;99.90
31527;DHT22;18136;42.236;-73.040;2023-07-29T07:58:30;20.10;99.90
31527;DHT22;18136;42.236;-73.040;2023-07-29T08:01:06;20.10;99.90
31527;DHT22;18136;42.236;-73.040;2023-07-29T08:03:33;20.10;99.90
31527;DHT22;18136;42.236;-73.040;2023-07-29T08:06:00;20.10;99.90
31527;DHT22;18136;42.236;-73.040;2023-07-29T08:08:26;20.00;99.90
31527;DHT22;18136;42.236;-73.040;2023-07-29T08:10:53;20.10;99.90
31527;DHT22;18136;42.236;-73.040;2023-07-29T08:13:20;20.00;99.90
31527;DHT22;18136;42.236;-73.040;2023-07-29T08:15:53;20.00;99.90
31527;DHT22;18136;42.236;-73.040;2023-07-29T08:18:19;20.00;99.90
31527;DHT22;18136;42.236;-73.040;2023-07-29T08:20:57;20.00;99.90
31527;DHT22;18136;42.236;-73.040;2023-07-29T08:23:24;20.00;99.90
31527;DHT22;18136;42.236;-73.040;2023-07-29T08:25:56;20.00;99.90
31527;DHT22;18136;42.236;-73.040;2023-07-29T08:28:37;20.00;99.90
31527;DHT22;18136;42.236;-73.040;2023-07-29T08:31:03;20.00;99.90
31527;DHT22;18136;42.236;-73.040;2023-07-29T08:33:30;20.10;99.90
31527;DHT22;18136;42.236;-73.040;2023-07-29T08:35:56;20.00;99.90
31527;DHT22;18136;42.236;-73.040;2023-07-29T08:38:22;20.00;99.90
31527;DHT22;18136;42.236;-73.040;2023-07-29T08:41:14;20.00;99.90
31527;DHT22;18136;42.236;-73.040;2023-07-29T08:43:50;20.00;99.90
31527;DHT22;18136;42.236;-73.040;2023-07-29T08:46:19;20.00;99.90
31527;DHT22;18136;42.236;-73.040;2023-07-29T08:48:46;20.00;99.90
31527;DHT22;18136;42.236;-73.040;2023-07-29T08:51:12;20.00;99.90
31527;DHT22;18136;42.236;-73.040;2023-07-29T08:53:39;20.00;99.90
31527;DHT22;18136;42.236;-73.040;2023-07-29T08:56:06;20.00;99.90
31527;DHT22;18136;42.236;-73.040;2023-07-29T08:58:33;20.00;99.90
31527;DHT22;18136;42.236;-73.040;2023-07-29T09:01:00;20.00;99.90
31527;DHT22;18136;42.236;-73.040;2023-07-29T09:03:26;19.90;99.90
31527;DHT22;18136;42.236;-73.040;2023-07-29T09:05:53;20.00;99.90
31527;DHT22;18136;42.236;-73.040;2023-07-29T09:08:20;19.90;99.90
31527;DHT22;18136;42.236;-73.040;2023-07-29T09:10:47;19.90;99.90
31527;DHT22;18136;42.236;-73.040;2023-07-29T09:13:13;19.90;99.90
31527;DHT22;18136;42.236;-73.040;2023-07-29T09:15:40;19.90;99.90
31527;DHT22;18136;42.236;-73.040;2023-07-29T09:18:19;19.90;99.90
31527;DHT22;18136;42.236;-73.040;2023-07-29T09:20:50;19.90;99.90
31527;DHT22;18136;42.236;-73.040;2023-07-29T09:23:16;19.90;99.90
31527;DHT22;18136;42.236;-73.040;2023-07-29T09:25:42;19.90;99.90
31527;DHT22;18136;42.236;-73.040;2023-07-29T09:28:13;19.90;99.90
31527;DHT22;18136;42.236;-73.040;2023-07-29T09:30:41;19.80;99.90
31527;DHT22;18136;42.236;-73.040;2023-07-29T09:33:09;19.80;99.90
31527;DHT22;18136;42.236;-73.040;2023-07-29T09:35:36;19.80;99.90
31527;DHT22;18136;42.236;-73.040;2023-07-29T09:38:06;19.80;99.90
31527;DHT22;18136;42.236;-73.040;2023-07-29T09:40:39;19.80;99.90
31527;DHT22;18136;42.236;-73.040;2023-07-29T09:43:06;19.80;99.90
31527;DHT22;18136;42.236;-73.040;2023-07-29T09:45:34;19.80;99.90
31527;DHT22;18136;42.236;-73.040;2023-07-29T09:48:02;19.80;99.90
31527;DHT22;18136;42.236;-73.040;2023-07-29T09:50:28;19.70;99.90
31527;DHT22;18136;42.236;-73.040;2023-07-29T09:52:56;19.70;99.90
31527;DHT22;18136;42.236;-73.040;2023-07-29T09:55:25;19.70;99.90
31527;DHT22;18136;42.236;-73.040;2023-07-29T09:57:59;19.80;99.90
31527;DHT22;18136;42.236;-73.040;2023-07-29T10:00:30;19.80;99.90
31527;DHT22;18136;42.236;-73.040;2023-07-29T10:02:58;19.70;99.90
31527;DHT22;18136;42.236;-73.040;2023-07-29T10:05:26;19.80;99.90
31527;DHT22;18136;42.236;-73.040;2023-07-29T10:07:54;19.80;99.90
31527;DHT22;18136;42.236;-73.040;2023-07-29T10:10:21;19.70;99.90
31527;DHT22;18136;42.236;-73.040;2023-07-29T10:12:47;19.70;99.90
31527;DHT22;18136;42.236;-73.040;2023-07-29T10:15:13;19.70;99.90
31527;DHT22;18136;42.236;-73.040;2023-07-29T10:17:40;19.70;99.90
31527;DHT22;18136;42.236;-73.040;2023-07-29T10:20:08;19.70;99.90
31527;DHT22;18136;42.236;-73.040;2023-07-29T10:22:39;19.70;99.90
31527;DHT22;18136;42.236;-73.040;2023-07-29T10:25:09;19.70;99.90
31527;DHT22;18136;42.236;-73.040;2023-07-29T10:30:28;19.70;99.90
31527;DHT22;18136;42.236;-73.040;2023-07-29T10:32:58;19.60;99.90
31527;DHT22;18136;42.236;-73.040;2023-07-29T10:35:24;19.70;99.90
31527;DHT22;18136;42.236;-73.040;2023-07-29T10:37:53;19.60;99.90
31527;DHT22;18136;42.236;-73.040;2023-07-29T10:40:20;19.70;99.90
31527;DHT22;18136;42.236;-73.040;2023-07-29T10:43:01;19.60;99.90
31527;DHT22;18136;42.236;-73.040;2023-07-29T10:45:38;19.70;99.90
31527;DHT22;18136;42.236;-73.040;2023-07-29T10:48:11;19.70;99.90
31527;DHT22;18136;42.236;-73.040;2023-07-29T10:50:37;19.70;99.90
31527;DHT22;18136;42.236;-73.040;2023-07-29T10:53:04;19.60;99.90
31527;DHT22;18136;42.236;-73.040;2023-07-29T10:55:33;19.70;99.90
31527;DHT22;18136;42.236;-73.040;2023-07-29T10:58:07;19.70;99.90
31527;DHT22;18136;42.236;-73.040;2023-07-29T11:00:33;19.70;99.90
31527;DHT22;18136;42.236;-73.040;2023-07-29T11:03:02;19.80;99.90
31527;DHT22;18136;42.236;-73.040;2023-07-29T11:05:49;19.80;99.90
31527;DHT22;18136;42.236;-73.040;2023-07-29T11:08:20;19.80;99.90
31527;DHT22;18136;42.236;-73.040;2023-07-29T11:11:06;19.80;99.90
31527;DHT22;18136;42.236;-73.040;2023-07-29T11:13:37;19.90;99.90
31527;DHT22;18136;42.236;-73.040;2023-07-29T11:16:04;19.90;99.90
31527;DHT22;18136;42.236;-73.040;2023-07-29T11:18:35;20.00;99.90
31527;DHT22;18136;42.236;-73.040;2023-07-29T11:21:02;20.00;99.90
31527;DHT22;18136;42.236;-73.040;2023-07-29T11:23:40;20.10;99.90
31527;DHT22;18136;42.236;-73.040;2023-07-29T11:26:07;20.10;99.90
31527;DHT22;18136;42.236;-73.040;2023-07-29T11:28:38;20.10;99.90
31527;DHT22;18136;42.236;-73.040;2023-07-29T11:31:04;20.20;99.90
31527;DHT22;18136;42.236;-73.040;2023-07-29T11:33:31;20.20;99.90
31527;DHT22;18136;42.236;-73.040;2023-07-29T11:35:58;20.20;99.90
31527;DHT22;18136;42.236;-73.040;2023-07-29T11:38:24;20.30;99.90
31527;DHT22;18136;42.236;-73.040;2023-07-29T11:41:00;20.30;99.90
31527;DHT22;18136;42.236;-73.040;2023-07-29T11:43:29;20.30;99.90
31527;DHT22;18136;42.236;-73.040;2023-07-29T11:45:55;20.40;99.90
31527;DHT22;18136;42.236;-73.040;2023-07-29T11:48:28;20.40;99.90
31527;DHT22;18136;42.236;-73.040;2023-07-29T11:50:54;20.50;99.90
31527;DHT22;18136;42.236;-73.040;2023-07-29T11:53:21;20.50;99.90
31527;DHT22;18136;42.236;-73.040;2023-07-29T11:55:51;20.60;99.90
31527;DHT22;18136;42.236;-73.040;2023-07-29T11:58:18;20.70;99.90
31527;DHT22;18136;42.236;-73.040;2023-07-29T12:00:44;20.70;99.90
31527;DHT22;18136;42.236;-73.040;2023-07-29T12:03:11;20.80;99.90
31527;DHT22;18136;42.236;-73.040;2023-07-29T12:05:38;20.80;99.90
31527;DHT22;18136;42.236;-73.040;2023-07-29T12:08:04;20.90;99.90
31527;DHT22;18136;42.236;-73.040;2023-07-29T12:10:30;20.90;99.90
31527;DHT22;18136;42.236;-73.040;2023-07-29T12:12:57;20.90;99.90
31527;DHT22;18136;42.236;-73.040;2023-07-29T12:15:27;21.00;99.90
31527;DHT22;18136;42.236;-73.040;2023-07-29T12:17:55;21.10;99.90
31527;DHT22;18136;42.236;-73.040;2023-07-29T12:20:25;21.10;99.90
31527;DHT22;18136;42.236;-73.040;2023-07-29T12:22:56;21.10;99.90
31527;DHT22;18136;42.236;-73.040;2023-07-29T12:25:23;21.20;99.90
31527;DHT22;18136;42.236;-73.040;2023-07-29T12:27:49;21.20;99.90
31527;DHT22;18136;42.236;-73.040;2023-07-29T12:30:15;21.30;99.90
31527;DHT22;18136;42.236;-73.040;2023-07-29T12:32:46;21.40;99.90
31527;DHT22;18136;42.236;-73.040;2023-07-29T12:35:13;21.40;99.90
31527;DHT22;18136;42.236;-73.040;2023-07-29T12:37:40;21.40;99.90
31527;DHT22;18136;42.236;-73.040;2023-07-29T12:40:28;21.50;99.90
31527;DHT22;18136;42.236;-73.040;2023-07-29T12:42:55;21.50;99.90
31527;DHT22;18136;42.236;-73.040;2023-07-29T12:45:21;21.60;99.90
31527;DHT22;18136;42.236;-73.040;2023-07-29T12:47:52;21.60;99.90
31527;DHT22;18136;42.236;-73.040;2023-07-29T12:50:18;21.70;99.90
31527;DHT22;18136;42.236;-73.040;2023-07-29T12:52:45;21.80;99.90
31527;DHT22;18136;42.236;-73.040;2023-07-29T12:55:11;22.00;99.90
31527;DHT22;18136;42.236;-73.040;2023-07-29T12:57:41;22.10;99.90
31527;DHT22;18136;42.236;-73.040;2023-07-29T13:00:09;22.10;99.90
31527;DHT22;18136;42.236;-73.040;2023-07-29T13:02:35;22.00;99.90
31527;DHT22;18136;42.236;-73.040;2023-07-29T13:05:01;22.10;99.90
31527;DHT22;18136;42.236;-73.040;2023-07-29T13:07:27;22.20;99.90
31527;DHT22;18136;42.236;-73.040;2023-07-29T13:09:53;22.20;99.90
31527;DHT22;18136;42.236;-73.040;2023-07-29T13:12:20;22.30;99.90
31527;DHT22;18136;42.236;-73.040;2023-07-29T13:14:46;22.40;99.90
31527;DHT22;18136;42.236;-73.040;2023-07-29T13:17:12;22.40;99.90
31527;DHT22;18136;42.236;-73.040;2023-07-29T13:19:38;22.40;99.90
31527;DHT22;18136;42.236;-73.040;2023-07-29T13:22:05;22.50;99.90
31527;DHT22;18136;42.236;-73.040;2023-07-29T13:24:31;22.50;99.90
31527;DHT22;18136;42.236;-73.040;2023-07-29T13:26:58;22.50;99.90
31527;DHT22;18136;42.236;-73.040;2023-07-29T13:29:24;22.50;99.90
31527;DHT22;18136;42.236;-73.040;2023-07-29T13:31:50;22.50;99.90
31527;DHT22;18136;42.236;-73.040;2023-07-29T13:34:16;22.60;99.90
31527;DHT22;18136;42.236;-73.040;2023-07-29T13:36:42;22.60;99.90
31527;DHT22;18136;42.236;-73.040;2023-07-29T13:39:08;22.60;99.90
31527;DHT22;18136;42.236;-73.040;2023-07-29T13:41:34;22.60;99.90
31527;DHT22;18136;42.236;-73.040;2023-07-29T13:44:00;22.60;99.90
31527;DHT22;18136;42.236;-73.040;2023-07-29T13:46:26;22.60;99.90
31527;DHT22;18136;42.236;-73.040;2023-07-29T13:48:52;22.60;99.90
31527;DHT22;18136;42.236;-73.040;2023-07-29T13:51:18;22.60;99.90
31527;DHT22;18136;42.236;-73.040;2023-07-29T13:53:44;22.70;99.90
31527;DHT22;18136;42.236;-73.040;2023-07-29T13:56:11;22.70;99.90
31527;DHT22;18136;42.236;-73.040;2023-07-29T13:58:37;22.70;99.90
31527;DHT22;18136;42.236;-73.040;2023-07-29T14:01:03;22.80;99.90
31527;DHT22;18136;42.236;-73.040;2023-07-29T14:03:29;23.00;99.90
31527;DHT22;18136;42.236;-73.040;2023-07-29T14:05:55;23.00;99.90
31527;DHT22;18136;42.236;-73.040;2023-07-29T14:08:21;23.00;99.90
31527;DHT22;18136;42.236;-73.040;2023-07-29T14:10:49;23.10;99.90
31527;DHT22;18136;42.236;-73.040;2023-07-29T14:13:15;23.10;99.90
31527;DHT22;18136;42.236;-73.040;2023-07-29T14:15:41;23.20;99.90
31527;DHT22;18136;42.236;-73.040;2023-07-29T14:18:07;23.20;99.90
31527;DHT22;18136;42.236;-73.040;2023-07-29T14:20:34;23.30;99.90
31527;DHT22;18136;42.236;-73.040;2023-07-29T14:23:00;23.30;99.90
31527;DHT22;18136;42.236;-73.040;2023-07-29T14:25:27;23.30;99.90
31527;DHT22;18136;42.236;-73.040;2023-07-29T14:27:53;23.40;99.90
31527;DHT22;18136;42.236;-73.040;2023-07-29T14:30:19;23.60;99.90
31527;DHT22;18136;42.236;-73.040;2023-07-29T14:32:46;23.80;99.90
31527;DHT22;18136;42.236;-73.040;2023-07-29T14:35:13;23.90;99.90
31527;DHT22;18136;42.236;-73.040;2023-07-29T14:37:39;24.00;99.90
31527;DHT22;18136;42.236;-73.040;2023-07-29T14:40:06;24.00;99.90
31527;DHT22;18136;42.236;-73.040;2023-07-29T14:42:33;24.00;99.90
31527;DHT22;18136;42.236;-73.040;2023-07-29T14:44:59;24.00;99.90
31527;DHT22;18136;42.236;-73.040;2023-07-29T14:47:25;24.00;99.90
31527;DHT22;18136;42.236;-73.040;2023-07-29T14:49:51;23.90;99.90
31527;DHT22;18136;42.236;-73.040;2023-07-29T14:52:17;23.90;99.90
31527;DHT22;18136;42.236;-73.040;2023-07-29T14:54:43;23.90;99.90
31527;DHT22;18136;42.236;-73.040;2023-07-29T14:57:10;23.90;99.90
31527;DHT22;18136;42.236;-73.040;2023-07-29T14:59:37;23.90;99.90
31527;DHT22;18136;42.236;-73.040;2023-07-29T15:02:03;23.90;99.90
31527;DHT22;18136;42.236;-73.040;2023-07-29T15:04:29;23.90;99.90
31527;DHT22;18136;42.236;-73.040;2023-07-29T15:06:55;23.90;99.90
31527;DHT22;18136;42.236;-73.040;2023-07-29T15:09:21;23.80;99.90
31527;DHT22;18136;42.236;-73.040;2023-07-29T15:11:47;23.90;99.90
31527;DHT22;18136;42.236;-73.040;2023-07-29T15:14:13;24.00;99.90